sensor_id;sensor_type;location;lat;lon;timestamp;P1;durP1;ratioP1;P2;durP2;ratioP2
39256;SDS011;24958;48.066;11.038;2022-08-19T00:01:27;15.80;;;14.20;;
39256;SDS011;24958;48.066;11.038;2022-08-19T00:03:54;14.48;;;13.10;;
39256;SDS011;24958;48.066;11.038;2022-08-19T00:06:20;15.65;;;14.15;;
39256;SDS011;24958;48.066;11.038;2022-08-19T00:08:46;15.25;;;13.85;;
39256;SDS011;24958;48.066;11.038;2022-08-19T00:11:12;15.30;;;13.80;;
39256;SDS011;24958;48.066;11.038;2022-08-19T00:13:38;16.85;;;14.90;;
39256;SDS011;24958;48.066;11.038;2022-08-19T00:16:05;15.25;;;13.75;;
39256;SDS011;24958;48.066;11.038;2022-08-19T00:18:32;16.05;;;14.43;;
39256;SDS011;24958;48.066;11.038;2022-08-19T00:20:58;14.77;;;13.38;;
39256;SDS011;24958;48.066;11.038;2022-08-19T00:23:24;15.63;;;14.02;;
39256;SDS011;24958;48.066;11.038;2022-08-19T00:25:50;14.75;;;13.32;;
39256;SDS011;24958;48.066;11.038;2022-08-19T00:28:17;14.27;;;12.88;;
39256;SDS011;24958;48.066;11.038;2022-08-19T00:30:43;15.68;;;13.95;;
39256;SDS011;24958;48.066;11.038;2022-08-19T00:33:09;13.45;;;12.15;;
39256;SDS011;24958;48.066;11.038;2022-08-19T00:35:35;14.13;;;12.73;;
39256;SDS011;24958;48.066;11.038;2022-08-19T00:38:03;13.23;;;11.98;;
39256;SDS011;24958;48.066;11.038;2022-08-19T00:40:30;13.13;;;11.93;;
39256;SDS011;24958;48.066;11.038;2022-08-19T00:42:56;12.73;;;11.52;;
39256;SDS011;24958;48.066;11.038;2022-08-19T00:45:23;13.82;;;12.52;;
39256;SDS011;24958;48.066;11.038;2022-08-19T00:47:49;14.00;;;12.48;;
39256;SDS011;24958;48.066;11.038;2022-08-19T00:50:16;12.80;;;11.45;;
39256;SDS011;24958;48.066;11.038;2022-08-19T00:52:45;14.23;;;12.75;;
39256;SDS011;24958;48.066;11.038;2022-08-19T00:55:30;12.60;;;11.50;;
39256;SDS011;24958;48.066;11.038;2022-08-19T00:58:01;12.23;;;11.05;;
39256;SDS011;24958;48.066;11.038;2022-08-19T01:00:28;12.82;;;11.55;;
39256;SDS011;24958;48.066;11.038;2022-08-19T01:02:54;11.63;;;10.52;;
39256;SDS011;24958;48.066;11.038;2022-08-19T01:05:22;12.43;;;11.13;;
39256;SDS011;24958;48.066;11.038;2022-08-19T01:07:48;11.00;;;10.00;;
39256;SDS011;24958;48.066;11.038;2022-08-19T01:10:18;11.13;;;10.02;;
39256;SDS011;24958;48.066;11.038;2022-08-19T01:12:47;10.63;;;9.68;;
39256;SDS011;24958;48.066;11.038;2022-08-19T01:15:14;9.88;;;8.98;;
39256;SDS011;24958;48.066;11.038;2022-08-19T01:17:42;11.13;;;10.13;;
39256;SDS011;24958;48.066;11.038;2022-08-19T01:20:16;9.75;;;8.90;;
39256;SDS011;24958;48.066;11.038;2022-08-19T01:22:44;11.43;;;10.32;;
39256;SDS011;24958;48.066;11.038;2022-08-19T01:25:10;11.00;;;10.10;;
39256;SDS011;24958;48.066;11.038;2022-08-19T01:27:42;11.52;;;10.32;;
39256;SDS011;24958;48.066;11.038;2022-08-19T01:30:09;10.77;;;9.85;;
39256;SDS011;24958;48.066;11.038;2022-08-19T01:32:36;10.57;;;9.50;;
39256;SDS011;24958;48.066;11.038;2022-08-19T01:35:02;10.23;;;9.32;;
39256;SDS011;24958;48.066;11.038;2022-08-19T01:37:28;10.52;;;9.50;;
39256;SDS011;24958;48.066;11.038;2022-08-19T01:39:55;9.30;;;8.50;;
39256;SDS011;24958;48.066;11.038;2022-08-19T01:42:21;9.73;;;8.75;;
39256;SDS011;24958;48.066;11.038;2022-08-19T01:44:47;9.43;;;8.60;;
39256;SDS011;24958;48.066;11.038;2022-08-19T01:47:13;9.50;;;8.60;;
39256;SDS011;24958;48.066;11.038;2022-08-19T01:49:41;9.70;;;8.82;;
39256;SDS011;24958;48.066;11.038;2022-08-19T01:52:07;9.27;;;8.38;;
39256;SDS011;24958;48.066;11.038;2022-08-19T01:54:33;9.68;;;8.68;;
39256;SDS011;24958;48.066;11.038;2022-08-19T01:57:06;8.85;;;8.05;;
39256;SDS011;24958;48.066;11.038;2022-08-19T01:59:33;8.68;;;7.97;;
39256;SDS011;24958;48.066;11.038;2022-08-19T02:02:01;9.38;;;8.48;;
39256;SDS011;24958;48.066;11.038;2022-08-19T02:04:27;9.23;;;8.27;;
39256;SDS011;24958;48.066;11.038;2022-08-19T02:06:53;9.77;;;8.77;;
39256;SDS011;24958;48.066;11.038;2022-08-19T02:09:19;8.90;;;8.10;;
39256;SDS011;24958;48.066;11.038;2022-08-19T02:11:45;9.57;;;8.68;;
39256;SDS011;24958;48.066;11.038;2022-08-19T02:14:11;9.20;;;8.30;;
39256;SDS011;24958;48.066;11.038;2022-08-19T02:16:38;8.52;;;7.63;;
39256;SDS011;24958;48.066;11.038;2022-08-19T02:19:05;9.48;;;8.45;;
39256;SDS011;24958;48.066;11.038;2022-08-19T02:21:31;9.35;;;8.55;;
39256;SDS011;24958;48.066;11.038;2022-08-19T02:23:57;9.65;;;8.68;;
39256;SDS011;24958;48.066;11.038;2022-08-19T02:26:23;8.43;;;7.65;;
39256;SDS011;24958;48.066;11.038;2022-08-19T02:28:51;9.35;;;8.02;;
39256;SDS011;24958;48.066;11.038;2022-08-19T02:31:18;8.90;;;8.10;;
39256;SDS011;24958;48.066;11.038;2022-08-19T02:33:45;8.60;;;7.88;;
39256;SDS011;24958;48.066;11.038;2022-08-19T02:36:12;8.43;;;7.63;;
39256;SDS011;24958;48.066;11.038;2022-08-19T02:38:38;9.50;;;8.48;;
39256;SDS011;24958;48.066;11.038;2022-08-19T02:41:06;9.27;;;7.70;;
39256;SDS011;24958;48.066;11.038;2022-08-19T02:43:32;9.38;;;8.15;;
39256;SDS011;24958;48.066;11.038;2022-08-19T02:46:10;9.15;;;8.25;;
39256;SDS011;24958;48.066;11.038;2022-08-19T02:48:36;10.10;;;9.05;;
39256;SDS011;24958;48.066;11.038;2022-08-19T02:51:02;9.02;;;8.25;;
39256;SDS011;24958;48.066;11.038;2022-08-19T02:53:30;11.30;;;9.05;;
39256;SDS011;24958;48.066;11.038;2022-08-19T02:55:56;9.13;;;8.20;;
39256;SDS011;24958;48.066;11.038;2022-08-19T02:58:22;10.32;;;9.23;;
39256;SDS011;24958;48.066;11.038;2022-08-19T03:00:50;9.50;;;8.60;;
39256;SDS011;24958;48.066;11.038;2022-08-19T03:03:16;9.75;;;8.70;;
39256;SDS011;24958;48.066;11.038;2022-08-19T03:05:42;9.40;;;8.45;;
39256;SDS011;24958;48.066;11.038;2022-08-19T03:08:09;10.52;;;9.25;;
39256;SDS011;24958;48.066;11.038;2022-08-19T03:10:44;8.55;;;7.75;;
39256;SDS011;24958;48.066;11.038;2022-08-19T03:13:12;9.93;;;8.90;;
39256;SDS011;24958;48.066;11.038;2022-08-19T03:15:40;9.20;;;8.35;;
39256;SDS011;24958;48.066;11.038;2022-08-19T03:18:07;11.55;;;9.70;;
39256;SDS011;24958;48.066;11.038;2022-08-19T03:20:33;9.52;;;8.63;;
39256;SDS011;24958;48.066;11.038;2022-08-19T03:22:59;10.02;;;9.13;;
39256;SDS011;24958;48.066;11.038;2022-08-19T03:25:25;8.60;;;7.90;;
39256;SDS011;24958;48.066;11.038;2022-08-19T03:27:51;9.85;;;8.85;;
39256;SDS011;24958;48.066;11.038;2022-08-19T03:30:17;9.38;;;8.38;;
39256;SDS011;24958;48.066;11.038;2022-08-19T03:32:43;11.68;;;9.30;;
39256;SDS011;24958;48.066;11.038;2022-08-19T03:35:09;9.38;;;8.40;;
39256;SDS011;24958;48.066;11.038;2022-08-19T03:37:35;9.82;;;8.82;;
39256;SDS011;24958;48.066;11.038;2022-08-19T03:40:01;9.65;;;8.70;;
39256;SDS011;24958;48.066;11.038;2022-08-19T03:42:28;11.73;;;9.10;;
39256;SDS011;24958;48.066;11.038;2022-08-19T03:44:55;9.05;;;8.00;;
39256;SDS011;24958;48.066;11.038;2022-08-19T03:47:21;9.82;;;8.93;;
39256;SDS011;24958;48.066;11.038;2022-08-19T03:49:47;9.48;;;8.57;;
39256;SDS011;24958;48.066;11.038;2022-08-19T03:52:13;10.95;;;9.88;;
39256;SDS011;24958;48.066;11.038;2022-08-19T03:54:39;11.32;;;10.10;;
39256;SDS011;24958;48.066;11.038;2022-08-19T03:57:05;9.82;;;8.93;;
39256;SDS011;24958;48.066;11.038;2022-08-19T03:59:32;13.63;;;12.23;;
39256;SDS011;24958;48.066;11.038;2022-08-19T04:02:01;12.27;;;11.13;;
39256;SDS011;24958;48.066;11.038;2022-08-19T04:04:27;12.07;;;10.93;;
39256;SDS011;24958;48.066;11.038;2022-08-19T04:06:54;11.82;;;10.73;;
39256;SDS011;24958;48.066;11.038;2022-08-19T04:09:20;13.10;;;11.70;;
39256;SDS011;24958;48.066;11.038;2022-08-19T04:11:47;11.75;;;10.70;;
39256;SDS011;24958;48.066;11.038;2022-08-19T04:14:18;13.75;;;12.15;;
39256;SDS011;24958;48.066;11.038;2022-08-19T04:16:44;13.57;;;12.27;;
39256;SDS011;24958;48.066;11.038;2022-08-19T04:19:11;17.17;;;13.77;;
39256;SDS011;24958;48.066;11.038;2022-08-19T04:21:37;14.88;;;13.38;;
39256;SDS011;24958;48.066;11.038;2022-08-19T04:24:03;15.02;;;13.52;;
39256;SDS011;24958;48.066;11.038;2022-08-19T04:26:31;18.58;;;15.60;;
39256;SDS011;24958;48.066;11.038;2022-08-19T04:28:59;15.35;;;13.88;;
39256;SDS011;24958;48.066;11.038;2022-08-19T04:31:26;15.82;;;14.07;;
39256;SDS011;24958;48.066;11.038;2022-08-19T04:33:53;15.70;;;14.20;;
39256;SDS011;24958;48.066;11.038;2022-08-19T04:36:21;15.40;;;13.90;;
39256;SDS011;24958;48.066;11.038;2022-08-19T04:38:48;17.67;;;15.23;;
39256;SDS011;24958;48.066;11.038;2022-08-19T04:41:14;16.10;;;14.52;;
39256;SDS011;24958;48.066;11.038;2022-08-19T04:43:59;16.00;;;14.50;;
39256;SDS011;24958;48.066;11.038;2022-08-19T04:46:25;17.38;;;15.48;;
39256;SDS011;24958;48.066;11.038;2022-08-19T04:48:54;15.45;;;13.90;;
39256;SDS011;24958;48.066;11.038;2022-08-19T04:51:21;17.20;;;15.27;;
39256;SDS011;24958;48.066;11.038;2022-08-19T04:53:47;15.73;;;14.20;;
39256;SDS011;24958;48.066;11.038;2022-08-19T04:56:14;16.15;;;14.48;;
39256;SDS011;24958;48.066;11.038;2022-08-19T04:58:42;15.18;;;13.77;;
39256;SDS011;24958;48.066;11.038;2022-08-19T05:01:09;17.58;;;14.95;;
39256;SDS011;24958;48.066;11.038;2022-08-19T05:03:36;15.45;;;13.95;;
39256;SDS011;24958;48.066;11.038;2022-08-19T05:06:10;16.65;;;14.23;;
39256;SDS011;24958;48.066;11.038;2022-08-19T05:08:37;15.13;;;13.68;;
39256;SDS011;24958;48.066;11.038;2022-08-19T05:11:29;17.77;;;15.55;;
39256;SDS011;24958;48.066;11.038;2022-08-19T05:13:54;15.95;;;14.45;;
39256;SDS011;24958;48.066;11.038;2022-08-19T05:16:21;17.50;;;14.88;;
39256;SDS011;24958;48.066;11.038;2022-08-19T05:18:48;16.13;;;14.40;;
39256;SDS011;24958;48.066;11.038;2022-08-19T05:21:33;13.77;;;12.38;;
39256;SDS011;24958;48.066;11.038;2022-08-19T05:24:18;15.98;;;14.38;;
39256;SDS011;24958;48.066;11.038;2022-08-19T05:26:46;16.85;;;14.73;;
39256;SDS011;24958;48.066;11.038;2022-08-19T05:29:13;18.35;;;16.52;;
39256;SDS011;24958;48.066;11.038;2022-08-19T05:31:40;21.95;;;18.05;;
39256;SDS011;24958;48.066;11.038;2022-08-19T05:34:06;20.45;;;18.35;;
39256;SDS011;24958;48.066;11.038;2022-08-19T05:36:34;26.35;;;22.35;;
39256;SDS011;24958;48.066;11.038;2022-08-19T05:39:00;22.67;;;20.30;;
39256;SDS011;24958;48.066;11.038;2022-08-19T05:41:26;27.13;;;23.08;;
39256;SDS011;24958;48.066;11.038;2022-08-19T05:43:58;24.73;;;22.13;;
39256;SDS011;24958;48.066;11.038;2022-08-19T05:46:26;30.00;;;23.83;;
39256;SDS011;24958;48.066;11.038;2022-08-19T05:48:52;25.95;;;22.75;;
39256;SDS011;24958;48.066;11.038;2022-08-19T05:51:21;24.92;;;22.30;;
39256;SDS011;24958;48.066;11.038;2022-08-19T05:53:47;30.90;;;24.60;;
39256;SDS011;24958;48.066;11.038;2022-08-19T05:56:14;26.08;;;23.33;;
39256;SDS011;24958;48.066;11.038;2022-08-19T05:58:41;25.55;;;22.85;;
39256;SDS011;24958;48.066;11.038;2022-08-19T06:01:14;30.15;;;23.42;;
39256;SDS011;24958;48.066;11.038;2022-08-19T06:03:41;26.65;;;23.33;;
39256;SDS011;24958;48.066;11.038;2022-08-19T06:06:08;25.60;;;22.88;;
39256;SDS011;24958;48.066;11.038;2022-08-19T06:08:34;25.13;;;22.42;;
39256;SDS011;24958;48.066;11.038;2022-08-19T06:11:14;29.42;;;24.17;;
39256;SDS011;24958;48.066;11.038;2022-08-19T06:13:40;26.88;;;24.02;;
39256;SDS011;24958;48.066;11.038;2022-08-19T06:16:06;31.50;;;25.20;;
39256;SDS011;24958;48.066;11.038;2022-08-19T06:18:32;25.48;;;22.73;;
39256;SDS011;24958;48.066;11.038;2022-08-19T06:20:58;32.67;;;24.52;;
39256;SDS011;24958;48.066;11.038;2022-08-19T06:23:25;28.23;;;24.27;;
39256;SDS011;24958;48.066;11.038;2022-08-19T06:25:51;32.45;;;24.77;;
39256;SDS011;24958;48.066;11.038;2022-08-19T06:28:17;26.35;;;23.30;;
39256;SDS011;24958;48.066;11.038;2022-08-19T06:30:43;32.00;;;25.25;;
39256;SDS011;24958;48.066;11.038;2022-08-19T06:33:09;28.27;;;23.92;;
39256;SDS011;24958;48.066;11.038;2022-08-19T06:35:38;33.10;;;25.40;;
39256;SDS011;24958;48.066;11.038;2022-08-19T06:38:04;26.58;;;23.35;;
39256;SDS011;24958;48.066;11.038;2022-08-19T06:40:30;29.45;;;24.13;;
39256;SDS011;24958;48.066;11.038;2022-08-19T06:42:56;28.30;;;23.83;;
39256;SDS011;24958;48.066;11.038;2022-08-19T06:45:24;32.33;;;24.77;;
39256;SDS011;24958;48.066;11.038;2022-08-19T06:47:52;33.70;;;26.23;;
39256;SDS011;24958;48.066;11.038;2022-08-19T06:50:24;35.20;;;27.05;;
39256;SDS011;24958;48.066;11.038;2022-08-19T06:52:50;28.83;;;24.52;;
39256;SDS011;24958;48.066;11.038;2022-08-19T06:55:16;33.95;;;25.90;;
39256;SDS011;24958;48.066;11.038;2022-08-19T06:57:42;28.35;;;24.30;;
39256;SDS011;24958;48.066;11.038;2022-08-19T07:00:11;35.10;;;27.02;;
39256;SDS011;24958;48.066;11.038;2022-08-19T07:02:40;29.70;;;24.58;;
39256;SDS011;24958;48.066;11.038;2022-08-19T07:05:06;34.40;;;25.40;;
39256;SDS011;24958;48.066;11.038;2022-08-19T07:07:33;29.48;;;24.73;;
39256;SDS011;24958;48.066;11.038;2022-08-19T07:09:59;34.08;;;25.55;;
39256;SDS011;24958;48.066;11.038;2022-08-19T07:12:26;29.95;;;24.30;;
39256;SDS011;24958;48.066;11.038;2022-08-19T07:14:52;33.40;;;25.92;;
39256;SDS011;24958;48.066;11.038;2022-08-19T07:17:18;26.95;;;23.65;;
39256;SDS011;24958;48.066;11.038;2022-08-19T07:19:45;32.22;;;25.13;;
39256;SDS011;24958;48.066;11.038;2022-08-19T07:22:11;28.15;;;24.08;;
39256;SDS011;24958;48.066;11.038;2022-08-19T07:24:37;31.15;;;25.27;;
39256;SDS011;24958;48.066;11.038;2022-08-19T07:27:04;32.10;;;26.13;;
39256;SDS011;24958;48.066;11.038;2022-08-19T07:29:32;30.38;;;25.08;;
39256;SDS011;24958;48.066;11.038;2022-08-19T07:31:58;38.58;;;26.30;;
39256;SDS011;24958;48.066;11.038;2022-08-19T07:34:25;31.80;;;25.95;;
39256;SDS011;24958;48.066;11.038;2022-08-19T07:36:52;32.38;;;26.10;;
39256;SDS011;24958;48.066;11.038;2022-08-19T07:39:29;31.75;;;26.55;;
39256;SDS011;24958;48.066;11.038;2022-08-19T07:41:56;36.60;;;27.58;;
39256;SDS011;24958;48.066;11.038;2022-08-19T07:44:22;29.58;;;25.13;;
39256;SDS011;24958;48.066;11.038;2022-08-19T07:46:50;29.63;;;25.45;;
39256;SDS011;24958;48.066;11.038;2022-08-19T07:49:17;35.42;;;26.95;;
39256;SDS011;24958;48.066;11.038;2022-08-19T07:51:48;29.33;;;26.13;;
39256;SDS011;24958;48.066;11.038;2022-08-19T07:54:14;30.63;;;24.92;;
39256;SDS011;24958;48.066;11.038;2022-08-19T07:56:40;26.52;;;23.30;;
39256;SDS011;24958;48.066;11.038;2022-08-19T07:59:06;35.17;;;27.23;;
39256;SDS011;24958;48.066;11.038;2022-08-19T08:01:34;29.25;;;26.13;;
39256;SDS011;24958;48.066;11.038;2022-08-19T08:04:00;31.02;;;25.95;;
39256;SDS011;24958;48.066;11.038;2022-08-19T08:06:44;32.85;;;28.00;;
39256;SDS011;24958;48.066;11.038;2022-08-19T08:09:31;73.70;;;58.35;;
39256;SDS011;24958;48.066;11.038;2022-08-19T08:12:02;49.90;;;44.58;;
39256;SDS011;24958;48.066;11.038;2022-08-19T08:14:42;36.67;;;29.58;;
39256;SDS011;24958;48.066;11.038;2022-08-19T08:17:08;29.42;;;25.20;;
39256;SDS011;24958;48.066;11.038;2022-08-19T08:19:35;33.08;;;27.17;;
39256;SDS011;24958;48.066;11.038;2022-08-19T08:22:01;30.90;;;27.58;;
39256;SDS011;24958;48.066;11.038;2022-08-19T08:24:29;34.28;;;28.33;;
39256;SDS011;24958;48.066;11.038;2022-08-19T08:26:56;32.95;;;26.67;;
39256;SDS011;24958;48.066;11.038;2022-08-19T08:29:22;30.95;;;27.60;;
39256;SDS011;24958;48.066;11.038;2022-08-19T08:31:48;35.40;;;29.00;;
39256;SDS011;24958;48.066;11.038;2022-08-19T08:34:14;33.80;;;28.33;;
39256;SDS011;24958;48.066;11.038;2022-08-19T08:36:41;37.10;;;29.00;;
39256;SDS011;24958;48.066;11.038;2022-08-19T08:39:11;32.20;;;27.95;;
39256;SDS011;24958;48.066;11.038;2022-08-19T08:44:20;34.65;;;27.98;;
39256;SDS011;24958;48.066;11.038;2022-08-19T08:46:48;31.27;;;26.58;;
39256;SDS011;24958;48.066;11.038;2022-08-19T08:51:42;39.28;;;31.65;;
39256;SDS011;24958;48.066;11.038;2022-08-19T08:54:10;32.38;;;28.88;;
39256;SDS011;24958;48.066;11.038;2022-08-19T08:56:38;37.85;;;30.02;;
39256;SDS011;24958;48.066;11.038;2022-08-19T08:59:06;32.00;;;28.00;;
39256;SDS011;24958;48.066;11.038;2022-08-19T09:01:34;37.65;;;29.02;;
39256;SDS011;24958;48.066;11.038;2022-08-19T09:04:02;32.97;;;27.83;;
39256;SDS011;24958;48.066;11.038;2022-08-19T09:06:32;36.38;;;28.27;;
39256;SDS011;24958;48.066;11.038;2022-08-19T09:09:10;32.78;;;28.13;;
39256;SDS011;24958;48.066;11.038;2022-08-19T09:16:30;33.80;;;28.13;;
39256;SDS011;24958;48.066;11.038;2022-08-19T09:18:58;42.95;;;29.65;;
39256;SDS011;24958;48.066;11.038;2022-08-19T09:21:26;35.47;;;27.95;;
39256;SDS011;24958;48.066;11.038;2022-08-19T09:23:52;40.42;;;29.90;;
39256;SDS011;24958;48.066;11.038;2022-08-19T09:26:22;41.63;;;28.83;;
39256;SDS011;24958;48.066;11.038;2022-08-19T09:28:49;37.28;;;27.75;;
39256;SDS011;24958;48.066;11.038;2022-08-19T09:31:18;35.13;;;27.30;;
39256;SDS011;24958;48.066;11.038;2022-08-19T09:33:48;40.03;;;28.63;;
39256;SDS011;24958;48.066;11.038;2022-08-19T09:36:18;33.78;;;28.45;;
39256;SDS011;24958;48.066;11.038;2022-08-19T09:38:44;37.42;;;27.67;;
39256;SDS011;24958;48.066;11.038;2022-08-19T09:41:15;32.28;;;26.75;;
39256;SDS011;24958;48.066;11.038;2022-08-19T09:43:45;41.42;;;29.67;;
39256;SDS011;24958;48.066;11.038;2022-08-19T09:46:12;37.80;;;28.70;;
39256;SDS011;24958;48.066;11.038;2022-08-19T09:48:42;41.38;;;29.42;;
39256;SDS011;24958;48.066;11.038;2022-08-19T09:51:12;42.80;;;30.63;;
39256;SDS011;24958;48.066;11.038;2022-08-19T09:53:40;35.58;;;28.80;;
39256;SDS011;24958;48.066;11.038;2022-08-19T09:56:07;43.67;;;30.42;;
39256;SDS011;24958;48.066;11.038;2022-08-19T09:58:33;36.97;;;29.27;;
39256;SDS011;24958;48.066;11.038;2022-08-19T10:01:00;45.83;;;31.63;;
39256;SDS011;24958;48.066;11.038;2022-08-19T10:03:27;41.33;;;31.60;;
39256;SDS011;24958;48.066;11.038;2022-08-19T10:05:54;43.55;;;29.23;;
39256;SDS011;24958;48.066;11.038;2022-08-19T10:08:38;38.95;;;28.15;;
39256;SDS011;24958;48.066;11.038;2022-08-19T10:11:04;32.92;;;26.05;;
39256;SDS011;24958;48.066;11.038;2022-08-19T10:13:31;39.85;;;28.95;;
39256;SDS011;24958;48.066;11.038;2022-08-19T10:16:04;37.90;;;27.30;;
39256;SDS011;24958;48.066;11.038;2022-08-19T10:18:31;36.33;;;26.63;;
39256;SDS011;24958;48.066;11.038;2022-08-19T10:21:03;35.25;;;25.55;;
39256;SDS011;24958;48.066;11.038;2022-08-19T10:23:32;23.10;;;20.63;;
39256;SDS011;24958;48.066;11.038;2022-08-19T10:26:02;30.63;;;22.17;;
39256;SDS011;24958;48.066;11.038;2022-08-19T10:28:29;21.95;;;19.35;;
39256;SDS011;24958;48.066;11.038;2022-08-19T10:30:55;26.13;;;20.60;;
39256;SDS011;24958;48.066;11.038;2022-08-19T10:33:21;21.27;;;19.00;;
39256;SDS011;24958;48.066;11.038;2022-08-19T10:35:47;25.88;;;19.63;;
39256;SDS011;24958;48.066;11.038;2022-08-19T10:38:13;18.15;;;16.05;;
39256;SDS011;24958;48.066;11.038;2022-08-19T10:40:39;22.13;;;17.13;;
39256;SDS011;24958;48.066;11.038;2022-08-19T10:43:05;18.17;;;16.27;;
39256;SDS011;24958;48.066;11.038;2022-08-19T10:45:31;21.40;;;17.17;;
39256;SDS011;24958;48.066;11.038;2022-08-19T10:47:57;20.95;;;16.58;;
39256;SDS011;24958;48.066;11.038;2022-08-19T10:50:23;15.43;;;13.82;;
39256;SDS011;24958;48.066;11.038;2022-08-19T10:53:08;15.18;;;13.32;;
39256;SDS011;24958;48.066;11.038;2022-08-19T10:55:34;14.73;;;12.02;;
39256;SDS011;24958;48.066;11.038;2022-08-19T10:58:20;12.95;;;10.98;;
39256;SDS011;24958;48.066;11.038;2022-08-19T11:00:54;12.27;;;11.13;;
39256;SDS011;24958;48.066;11.038;2022-08-19T11:03:21;11.25;;;10.15;;
39256;SDS011;24958;48.066;11.038;2022-08-19T11:05:56;11.88;;;10.15;;
39256;SDS011;24958;48.066;11.038;2022-08-19T11:08:22;10.05;;;8.85;;
39256;SDS011;24958;48.066;11.038;2022-08-19T11:10:52;10.65;;;9.60;;
39256;SDS011;24958;48.066;11.038;2022-08-19T11:13:21;9.02;;;8.13;;
39256;SDS011;24958;48.066;11.038;2022-08-19T11:15:55;7.65;;;6.95;;
39256;SDS011;24958;48.066;11.038;2022-08-19T11:18:21;8.30;;;7.50;;
39256;SDS011;24958;48.066;11.038;2022-08-19T11:20:47;7.40;;;6.70;;
39256;SDS011;24958;48.066;11.038;2022-08-19T11:23:14;7.85;;;7.15;;
39256;SDS011;24958;48.066;11.038;2022-08-19T11:25:40;7.80;;;7.10;;
39256;SDS011;24958;48.066;11.038;2022-08-19T11:28:06;7.68;;;6.97;;
39256;SDS011;24958;48.066;11.038;2022-08-19T11:30:32;7.15;;;6.45;;
39256;SDS011;24958;48.066;11.038;2022-08-19T11:32:59;7.43;;;6.72;;
39256;SDS011;24958;48.066;11.038;2022-08-19T11:35:26;7.13;;;6.43;;
39256;SDS011;24958;48.066;11.038;2022-08-19T11:37:52;7.05;;;6.35;;
39256;SDS011;24958;48.066;11.038;2022-08-19T11:40:18;4.85;;;4.45;;
39256;SDS011;24958;48.066;11.038;2022-08-19T11:42:44;4.40;;;4.10;;
39256;SDS011;24958;48.066;11.038;2022-08-19T11:45:21;4.75;;;4.35;;
39256;SDS011;24958;48.066;11.038;2022-08-19T11:47:47;4.18;;;3.78;;
39256;SDS011;24958;48.066;11.038;2022-08-19T11:50:14;3.88;;;3.58;;
39256;SDS011;24958;48.066;11.038;2022-08-19T11:52:40;3.30;;;3.10;;
39256;SDS011;24958;48.066;11.038;2022-08-19T11:55:07;3.70;;;3.40;;
39256;SDS011;24958;48.066;11.038;2022-08-19T11:57:33;3.88;;;3.42;;
39256;SDS011;24958;48.066;11.038;2022-08-19T11:59:59;3.95;;;3.65;;
39256;SDS011;24958;48.066;11.038;2022-08-19T12:02:26;4.25;;;3.75;;
39256;SDS011;24958;48.066;11.038;2022-08-19T12:04:52;3.63;;;3.33;;
39256;SDS011;24958;48.066;11.038;2022-08-19T12:07:18;3.95;;;3.65;;
39256;SDS011;24958;48.066;11.038;2022-08-19T12:09:45;4.35;;;3.95;;
39256;SDS011;24958;48.066;11.038;2022-08-19T12:12:11;4.60;;;4.10;;
39256;SDS011;24958;48.066;11.038;2022-08-19T12:14:37;4.07;;;3.78;;
39256;SDS011;24958;48.066;11.038;2022-08-19T12:17:04;4.43;;;3.97;;
39256;SDS011;24958;48.066;11.038;2022-08-19T12:19:32;4.35;;;3.97;;
39256;SDS011;24958;48.066;11.038;2022-08-19T12:21:59;4.20;;;3.80;;
39256;SDS011;24958;48.066;11.038;2022-08-19T12:24:28;3.85;;;3.55;;
39256;SDS011;24958;48.066;11.038;2022-08-19T12:26:56;4.60;;;4.20;;
39256;SDS011;24958;48.066;11.038;2022-08-19T12:29:23;4.00;;;3.70;;
39256;SDS011;24958;48.066;11.038;2022-08-19T12:31:53;4.60;;;4.20;;
39256;SDS011;24958;48.066;11.038;2022-08-19T12:34:25;4.55;;;4.05;;
39256;SDS011;24958;48.066;11.038;2022-08-19T12:36:54;4.13;;;3.83;;
39256;SDS011;24958;48.066;11.038;2022-08-19T12:39:20;4.07;;;3.78;;
39256;SDS011;24958;48.066;11.038;2022-08-19T12:41:46;3.10;;;2.90;;
39256;SDS011;24958;48.066;11.038;2022-08-19T12:44:14;2.90;;;2.70;;
39256;SDS011;24958;48.066;11.038;2022-08-19T12:46:40;3.92;;;2.85;;
39256;SDS011;24958;48.066;11.038;2022-08-19T12:49:06;2.63;;;2.42;;
39256;SDS011;24958;48.066;11.038;2022-08-19T12:51:32;3.15;;;2.92;;
39256;SDS011;24958;48.066;11.038;2022-08-19T12:53:58;3.35;;;3.03;;
39256;SDS011;24958;48.066;11.038;2022-08-19T12:56:26;2.95;;;2.75;;
39256;SDS011;24958;48.066;11.038;2022-08-19T12:58:52;3.00;;;2.80;;
39256;SDS011;24958;48.066;11.038;2022-08-19T13:01:20;3.10;;;2.80;;
39256;SDS011;24958;48.066;11.038;2022-08-19T13:03:46;3.15;;;2.72;;
39256;SDS011;24958;48.066;11.038;2022-08-19T13:06:12;2.78;;;2.58;;
39256;SDS011;24958;48.066;11.038;2022-08-19T13:08:38;3.72;;;3.42;;
39256;SDS011;24958;48.066;11.038;2022-08-19T13:11:12;3.15;;;2.95;;
39256;SDS011;24958;48.066;11.038;2022-08-19T13:13:40;3.35;;;2.88;;
39256;SDS011;24958;48.066;11.038;2022-08-19T13:16:08;2.58;;;2.38;;
39256;SDS011;24958;48.066;11.038;2022-08-19T13:18:35;2.80;;;2.60;;
39256;SDS011;24958;48.066;11.038;2022-08-19T13:21:02;3.17;;;2.97;;
39256;SDS011;24958;48.066;11.038;2022-08-19T13:23:29;3.65;;;3.35;;
39256;SDS011;24958;48.066;11.038;2022-08-19T13:25:59;3.05;;;2.85;;
39256;SDS011;24958;48.066;11.038;2022-08-19T13:28:25;3.00;;;2.80;;
39256;SDS011;24958;48.066;11.038;2022-08-19T13:31:11;3.70;;;2.78;;
39256;SDS011;24958;48.066;11.038;2022-08-19T13:33:58;3.20;;;3.00;;
39256;SDS011;24958;48.066;11.038;2022-08-19T13:36:24;2.63;;;2.42;;
39256;SDS011;24958;48.066;11.038;2022-08-19T13:38:50;2.80;;;2.60;;
39256;SDS011;24958;48.066;11.038;2022-08-19T13:41:16;3.03;;;2.83;;
39256;SDS011;24958;48.066;11.038;2022-08-19T13:43:44;2.95;;;2.75;;
39256;SDS011;24958;48.066;11.038;2022-08-19T13:46:11;4.00;;;3.60;;
39256;SDS011;24958;48.066;11.038;2022-08-19T13:48:40;3.72;;;3.42;;
39256;SDS011;24958;48.066;11.038;2022-08-19T13:51:07;3.85;;;3.55;;
39256;SDS011;24958;48.066;11.038;2022-08-19T13:53:37;4.47;;;4.13;;
39256;SDS011;24958;48.066;11.038;2022-08-19T13:56:07;4.55;;;4.15;;
39256;SDS011;24958;48.066;11.038;2022-08-19T13:58:33;4.50;;;4.10;;
39256;SDS011;24958;48.066;11.038;2022-08-19T14:00:59;5.20;;;4.70;;
39256;SDS011;24958;48.066;11.038;2022-08-19T14:03:26;4.88;;;4.47;;
39256;SDS011;24958;48.066;11.038;2022-08-19T14:05:52;4.20;;;3.90;;
39256;SDS011;24958;48.066;11.038;2022-08-19T14:08:18;4.75;;;4.10;;
39256;SDS011;24958;48.066;11.038;2022-08-19T14:10:44;4.30;;;3.90;;
39256;SDS011;24958;48.066;11.038;2022-08-19T14:13:13;5.03;;;3.90;;
39256;SDS011;24958;48.066;11.038;2022-08-19T14:15:39;3.90;;;3.60;;
39256;SDS011;24958;48.066;11.038;2022-08-19T14:18:05;4.53;;;4.22;;
39256;SDS011;24958;48.066;11.038;2022-08-19T14:20:33;4.05;;;3.65;;
39256;SDS011;24958;48.066;11.038;2022-08-19T14:22:59;3.90;;;3.60;;
39256;SDS011;24958;48.066;11.038;2022-08-19T14:25:26;3.80;;;3.50;;
39256;SDS011;24958;48.066;11.038;2022-08-19T14:27:53;3.75;;;3.45;;
39256;SDS011;24958;48.066;11.038;2022-08-19T14:30:20;3.88;;;3.58;;
39256;SDS011;24958;48.066;11.038;2022-08-19T14:32:47;3.50;;;3.30;;